sensor_id;sensor_type;location;lat;lon;timestamp;P1;durP1;ratioP1;P2;durP2;ratioP2
65463;SDS011;52063;45.110;9.870;2024-03-02T00:01:20;4.30;;;3.20;;
65463;SDS011;52063;45.110;9.870;2024-03-02T00:03:46;3.80;;;3.10;;
65463;SDS011;52063;45.110;9.870;2024-03-02T00:06:11;3.13;;;2.83;;
65463;SDS011;52063;45.110;9.870;2024-03-02T00:08:37;3.33;;;3.00;;
65463;SDS011;52063;45.110;9.870;2024-03-02T00:11:03;3.53;;;3.23;;
65463;SDS011;52063;45.110;9.870;2024-03-02T00:13:29;3.47;;;2.80;;
65463;SDS011;52063;45.110;9.870;2024-03-02T00:15:58;3.67;;;3.08;;
65463;SDS011;52063;45.110;9.870;2024-03-02T00:18:25;3.90;;;3.13;;
65463;SDS011;52063;45.110;9.870;2024-03-02T00:20:55;5.15;;;3.20;;
65463;SDS011;52063;45.110;9.870;2024-03-02T00:23:22;3.70;;;3.00;;
65463;SDS011;52063;45.110;9.870;2024-03-02T00:25:52;3.35;;;3.05;;
65463;SDS011;52063;45.110;9.870;2024-03-02T00:28:25;3.53;;;3.10;;
65463;SDS011;52063;45.110;9.870;2024-03-02T00:33:21;4.45;;;3.20;;
65463;SDS011;52063;45.110;9.870;2024-03-02T00:35:47;3.75;;;3.03;;
65463;SDS011;52063;45.110;9.870;2024-03-02T00:38:14;3.20;;;2.90;;
65463;SDS011;52063;45.110;9.870;2024-03-02T00:40:43;3.57;;;3.10;;
65463;SDS011;52063;45.110;9.870;2024-03-02T00:43:43;5.53;;;3.20;;
65463;SDS011;52063;45.110;9.870;2024-03-02T00:46:15;3.50;;;3.00;;
65463;SDS011;52063;45.110;9.870;2024-03-02T00:49:01;3.13;;;2.93;;
65463;SDS011;52063;45.110;9.870;2024-03-02T00:51:32;3.53;;;2.90;;
65463;SDS011;52063;45.110;9.870;2024-03-02T00:53:59;2.97;;;2.78;;
65463;SDS011;52063;45.110;9.870;2024-03-02T00:56:26;3.20;;;2.90;;
65463;SDS011;52063;45.110;9.870;2024-03-02T00:58:52;3.08;;;2.78;;
65463;SDS011;52063;45.110;9.870;2024-03-02T01:01:17;2.90;;;2.60;;
65463;SDS011;52063;45.110;9.870;2024-03-02T01:03:44;5.40;;;3.00;;
65463;SDS011;52063;45.110;9.870;2024-03-02T01:06:10;2.60;;;2.40;;
65463;SDS011;52063;45.110;9.870;2024-03-02T01:08:36;3.67;;;3.00;;
65463;SDS011;52063;45.110;9.870;2024-03-02T01:11:02;3.10;;;2.90;;
65463;SDS011;52063;45.110;9.870;2024-03-02T01:13:28;3.13;;;2.53;;
65463;SDS011;52063;45.110;9.870;2024-03-02T01:15:54;3.50;;;2.90;;
65463;SDS011;52063;45.110;9.870;2024-03-02T01:18:20;3.97;;;2.95;;
65463;SDS011;52063;45.110;9.870;2024-03-02T01:20:47;3.95;;;2.92;;
65463;SDS011;52063;45.110;9.870;2024-03-02T01:23:12;3.27;;;2.97;;
65463;SDS011;52063;45.110;9.870;2024-03-02T01:25:38;3.20;;;2.75;;
65463;SDS011;52063;45.110;9.870;2024-03-02T01:28:04;3.10;;;2.80;;
65463;SDS011;52063;45.110;9.870;2024-03-02T01:30:30;2.97;;;2.70;;
65463;SDS011;52063;45.110;9.870;2024-03-02T01:32:55;2.70;;;2.50;;
65463;SDS011;52063;45.110;9.870;2024-03-02T01:35:21;3.43;;;2.40;;
65463;SDS011;52063;45.110;9.870;2024-03-02T01:37:46;6.90;;;2.60;;
65463;SDS011;52063;45.110;9.870;2024-03-02T01:40:12;3.03;;;2.72;;
65463;SDS011;52063;45.110;9.870;2024-03-02T01:42:38;2.63;;;2.37;;
65463;SDS011;52063;45.110;9.870;2024-03-02T01:45:07;4.07;;;2.80;;
65463;SDS011;52063;45.110;9.870;2024-03-02T01:47:34;3.55;;;2.70;;
65463;SDS011;52063;45.110;9.870;2024-03-02T01:50:00;3.60;;;2.88;;
65463;SDS011;52063;45.110;9.870;2024-03-02T01:52:26;3.63;;;2.30;;
65463;SDS011;52063;45.110;9.870;2024-03-02T01:54:52;2.50;;;2.30;;
65463;SDS011;52063;45.110;9.870;2024-03-02T01:57:17;2.70;;;2.43;;
65463;SDS011;52063;45.110;9.870;2024-03-02T01:59:43;3.30;;;2.85;;
65463;SDS011;52063;45.110;9.870;2024-03-02T02:02:09;4.40;;;2.63;;
65463;SDS011;52063;45.110;9.870;2024-03-02T02:04:35;2.70;;;2.50;;
65463;SDS011;52063;45.110;9.870;2024-03-02T02:07:00;3.40;;;2.67;;
65463;SDS011;52063;45.110;9.870;2024-03-02T02:09:26;2.73;;;2.53;;
65463;SDS011;52063;45.110;9.870;2024-03-02T02:11:51;3.73;;;2.50;;
65463;SDS011;52063;45.110;9.870;2024-03-02T02:14:17;3.05;;;2.45;;
65463;SDS011;52063;45.110;9.870;2024-03-02T02:16:43;2.70;;;2.50;;
65463;SDS011;52063;45.110;9.870;2024-03-02T02:19:08;3.53;;;2.67;;
65463;SDS011;52063;45.110;9.870;2024-03-02T02:21:34;2.90;;;2.60;;
65463;SDS011;52063;45.110;9.870;2024-03-02T02:24:00;3.05;;;2.50;;
65463;SDS011;52063;45.110;9.870;2024-03-02T02:26:28;3.03;;;2.50;;
65463;SDS011;52063;45.110;9.870;2024-03-02T02:28:53;3.53;;;2.78;;
65463;SDS011;52063;45.110;9.870;2024-03-02T02:31:19;2.90;;;2.43;;
65463;SDS011;52063;45.110;9.870;2024-03-02T02:33:44;2.60;;;2.40;;
65463;SDS011;52063;45.110;9.870;2024-03-02T02:36:09;4.65;;;2.50;;
65463;SDS011;52063;45.110;9.870;2024-03-02T02:38:36;3.40;;;2.60;;
65463;SDS011;52063;45.110;9.870;2024-03-02T02:41:03;3.20;;;2.88;;
65463;SDS011;52063;45.110;9.870;2024-03-02T02:43:29;4.13;;;2.40;;
65463;SDS011;52063;45.110;9.870;2024-03-02T02:45:54;2.77;;;2.20;;
65463;SDS011;52063;45.110;9.870;2024-03-02T02:48:20;3.40;;;2.50;;
65463;SDS011;52063;45.110;9.870;2024-03-02T02:50:45;4.03;;;2.53;;
65463;SDS011;52063;45.110;9.870;2024-03-02T02:53:11;2.40;;;2.20;;
65463;SDS011;52063;45.110;9.870;2024-03-02T02:55:36;2.50;;;2.30;;
65463;SDS011;52063;45.110;9.870;2024-03-02T02:58:05;2.53;;;2.33;;
65463;SDS011;52063;45.110;9.870;2024-03-02T03:00:31;2.97;;;2.65;;
65463;SDS011;52063;45.110;9.870;2024-03-02T03:02:57;2.75;;;2.20;;
65463;SDS011;52063;45.110;9.870;2024-03-02T03:05:22;2.50;;;2.30;;
65463;SDS011;52063;45.110;9.870;2024-03-02T03:07:48;3.43;;;2.80;;
65463;SDS011;52063;45.110;9.870;2024-03-02T03:10:15;2.67;;;2.47;;
65463;SDS011;52063;45.110;9.870;2024-03-02T03:12:41;2.88;;;2.60;;
65463;SDS011;52063;45.110;9.870;2024-03-02T03:15:08;3.33;;;2.20;;
65463;SDS011;52063;45.110;9.870;2024-03-02T03:17:34;2.60;;;2.40;;
65463;SDS011;52063;45.110;9.870;2024-03-02T03:20:00;2.90;;;2.38;;
65463;SDS011;52063;45.110;9.870;2024-03-02T03:22:26;2.50;;;2.30;;
65463;SDS011;52063;45.110;9.870;2024-03-02T03:24:52;3.83;;;2.53;;
65463;SDS011;52063;45.110;9.870;2024-03-02T03:27:18;3.27;;;2.30;;
65463;SDS011;52063;45.110;9.870;2024-03-02T03:29:44;3.53;;;2.30;;
65463;SDS011;52063;45.110;9.870;2024-03-02T03:32:10;5.00;;;2.13;;
65463;SDS011;52063;45.110;9.870;2024-03-02T03:34:36;2.72;;;2.10;;
65463;SDS011;52063;45.110;9.870;2024-03-02T03:37:02;2.33;;;2.13;;
65463;SDS011;52063;45.110;9.870;2024-03-02T03:39:27;3.83;;;2.50;;
65463;SDS011;52063;45.110;9.870;2024-03-02T03:41:53;3.10;;;2.47;;
65463;SDS011;52063;45.110;9.870;2024-03-02T03:44:19;3.23;;;2.37;;
65463;SDS011;52063;45.110;9.870;2024-03-02T03:46:44;6.63;;;2.60;;
65463;SDS011;52063;45.110;9.870;2024-03-02T03:49:10;3.70;;;2.60;;
65463;SDS011;52063;45.110;9.870;2024-03-02T03:51:36;2.90;;;2.42;;
65463;SDS011;52063;45.110;9.870;2024-03-02T03:54:01;2.60;;;2.23;;
65463;SDS011;52063;45.110;9.870;2024-03-02T03:56:27;3.07;;;2.50;;
65463;SDS011;52063;45.110;9.870;2024-03-02T03:58:52;3.10;;;2.30;;
65463;SDS011;52063;45.110;9.870;2024-03-02T04:01:18;2.53;;;2.03;;
65463;SDS011;52063;45.110;9.870;2024-03-02T04:03:43;2.97;;;2.50;;
65463;SDS011;52063;45.110;9.870;2024-03-02T04:06:10;4.90;;;2.30;;
65463;SDS011;52063;45.110;9.870;2024-03-02T04:08:35;2.20;;;2.00;;
65463;SDS011;52063;45.110;9.870;2024-03-02T04:11:01;2.53;;;2.33;;
65463;SDS011;52063;45.110;9.870;2024-03-02T04:13:28;3.07;;;2.00;;
65463;SDS011;52063;45.110;9.870;2024-03-02T04:15:53;4.25;;;2.22;;
65463;SDS011;52063;45.110;9.870;2024-03-02T04:18:19;14.60;;;2.40;;
65463;SDS011;52063;45.110;9.870;2024-03-02T04:20:44;2.27;;;2.07;;
65463;SDS011;52063;45.110;9.870;2024-03-02T04:23:10;3.53;;;2.30;;
65463;SDS011;52063;45.110;9.870;2024-03-02T04:25:35;2.50;;;2.30;;
65463;SDS011;52063;45.110;9.870;2024-03-02T04:28:01;2.95;;;2.60;;
65463;SDS011;52063;45.110;9.870;2024-03-02T04:30:26;1.90;;;1.80;;
65463;SDS011;52063;45.110;9.870;2024-03-02T04:32:52;2.73;;;2.37;;
65463;SDS011;52063;45.110;9.870;2024-03-02T04:35:17;2.40;;;2.15;;
65463;SDS011;52063;45.110;9.870;2024-03-02T04:37:43;3.33;;;2.50;;
65463;SDS011;52063;45.110;9.870;2024-03-02T04:40:09;2.70;;;2.07;;
65463;SDS011;52063;45.110;9.870;2024-03-02T04:42:35;2.78;;;1.92;;
65463;SDS011;52063;45.110;9.870;2024-03-02T04:45:00;3.05;;;2.20;;
65463;SDS011;52063;45.110;9.870;2024-03-02T04:47:26;2.40;;;2.10;;
65463;SDS011;52063;45.110;9.870;2024-03-02T04:49:52;2.00;;;1.80;;
65463;SDS011;52063;45.110;9.870;2024-03-02T04:52:17;2.87;;;2.00;;
65463;SDS011;52063;45.110;9.870;2024-03-02T04:54:43;2.17;;;1.98;;
65463;SDS011;52063;45.110;9.870;2024-03-02T04:57:27;4.95;;;2.08;;
65463;SDS011;52063;45.110;9.870;2024-03-02T04:59:52;2.87;;;2.50;;
65463;SDS011;52063;45.110;9.870;2024-03-02T05:02:18;2.07;;;1.87;;
65463;SDS011;52063;45.110;9.870;2024-03-02T05:04:43;3.70;;;1.97;;
65463;SDS011;52063;45.110;9.870;2024-03-02T05:07:09;2.47;;;2.00;;
65463;SDS011;52063;45.110;9.870;2024-03-02T05:09:34;2.27;;;2.07;;
65463;SDS011;52063;45.110;9.870;2024-03-02T05:12:00;2.45;;;2.20;;
65463;SDS011;52063;45.110;9.870;2024-03-02T05:14:48;3.47;;;1.85;;
65463;SDS011;52063;45.110;9.870;2024-03-02T05:17:13;3.90;;;2.10;;
65463;SDS011;52063;45.110;9.870;2024-03-02T05:19:39;2.80;;;1.90;;
65463;SDS011;52063;45.110;9.870;2024-03-02T05:22:04;2.33;;;1.70;;
65463;SDS011;52063;45.110;9.870;2024-03-02T05:24:30;4.07;;;2.00;;
65463;SDS011;52063;45.110;9.870;2024-03-02T05:26:56;2.67;;;1.80;;
65463;SDS011;52063;45.110;9.870;2024-03-02T05:29:22;2.27;;;1.60;;
65463;SDS011;52063;45.110;9.870;2024-03-02T05:31:47;2.83;;;2.00;;
65463;SDS011;52063;45.110;9.870;2024-03-02T05:34:13;1.80;;;1.70;;
65463;SDS011;52063;45.110;9.870;2024-03-02T05:36:39;1.92;;;1.65;;
65463;SDS011;52063;45.110;9.870;2024-03-02T05:39:05;2.33;;;1.80;;
65463;SDS011;52063;45.110;9.870;2024-03-02T05:41:34;3.03;;;1.90;;
65463;SDS011;52063;45.110;9.870;2024-03-02T05:44:00;3.55;;;1.88;;
65463;SDS011;52063;45.110;9.870;2024-03-02T05:46:26;1.83;;;1.58;;
65463;SDS011;52063;45.110;9.870;2024-03-02T05:48:52;1.80;;;1.70;;
65463;SDS011;52063;45.110;9.870;2024-03-02T05:51:18;4.63;;;1.80;;
65463;SDS011;52063;45.110;9.870;2024-03-02T05:53:43;1.90;;;1.50;;
65463;SDS011;52063;45.110;9.870;2024-03-02T05:56:09;1.87;;;1.67;;
65463;SDS011;52063;45.110;9.870;2024-03-02T05:58:34;3.67;;;1.70;;
65463;SDS011;52063;45.110;9.870;2024-03-02T06:01:23;2.00;;;1.65;;
65463;SDS011;52063;45.110;9.870;2024-03-02T06:03:54;2.85;;;2.00;;
65463;SDS011;52063;45.110;9.870;2024-03-02T06:06:24;1.83;;;1.60;;
65463;SDS011;52063;45.110;9.870;2024-03-02T06:08:49;2.00;;;1.77;;
65463;SDS011;52063;45.110;9.870;2024-03-02T06:11:15;2.37;;;1.57;;
65463;SDS011;52063;45.110;9.870;2024-03-02T06:13:41;2.33;;;1.70;;
65463;SDS011;52063;45.110;9.870;2024-03-02T06:16:06;3.47;;;1.53;;
65463;SDS011;52063;45.110;9.870;2024-03-02T06:18:33;1.98;;;1.42;;
65463;SDS011;52063;45.110;9.870;2024-03-02T06:20:59;2.58;;;1.88;;
65463;SDS011;52063;45.110;9.870;2024-03-02T06:23:26;1.48;;;1.30;;
65463;SDS011;52063;45.110;9.870;2024-03-02T06:25:52;2.13;;;1.50;;
65463;SDS011;52063;45.110;9.870;2024-03-02T06:28:17;2.50;;;1.57;;
65463;SDS011;52063;45.110;9.870;2024-03-02T06:30:43;1.53;;;1.40;;
65463;SDS011;52063;45.110;9.870;2024-03-02T06:33:09;5.53;;;1.88;;
65463;SDS011;52063;45.110;9.870;2024-03-02T06:35:34;3.87;;;1.40;;
65463;SDS011;52063;45.110;9.870;2024-03-02T06:38:00;1.70;;;1.30;;
65463;SDS011;52063;45.110;9.870;2024-03-02T06:40:26;4.07;;;1.83;;
65463;SDS011;52063;45.110;9.870;2024-03-02T06:42:52;2.47;;;1.73;;
65463;SDS011;52063;45.110;9.870;2024-03-02T06:45:17;2.45;;;1.83;;
65463;SDS011;52063;45.110;9.870;2024-03-02T06:47:43;1.90;;;1.70;;
65463;SDS011;52063;45.110;9.870;2024-03-02T06:50:08;1.97;;;1.77;;
65463;SDS011;52063;45.110;9.870;2024-03-02T06:52:34;4.10;;;1.25;;
65463;SDS011;52063;45.110;9.870;2024-03-02T06:55:00;2.28;;;1.55;;
65463;SDS011;52063;45.110;9.870;2024-03-02T06:57:26;4.03;;;1.10;;
65463;SDS011;52063;45.110;9.870;2024-03-02T06:59:51;3.83;;;1.63;;
65463;SDS011;52063;45.110;9.870;2024-03-02T07:02:20;2.40;;;1.50;;
65463;SDS011;52063;45.110;9.870;2024-03-02T07:04:46;3.28;;;1.67;;
65463;SDS011;52063;45.110;9.870;2024-03-02T07:07:12;2.00;;;1.50;;
65463;SDS011;52063;45.110;9.870;2024-03-02T07:09:37;2.70;;;1.40;;
65463;SDS011;52063;45.110;9.870;2024-03-02T07:12:03;3.20;;;1.30;;
65463;SDS011;52063;45.110;9.870;2024-03-02T07:14:29;2.67;;;1.73;;
65463;SDS011;52063;45.110;9.870;2024-03-02T07:17:13;1.90;;;1.40;;
65463;SDS011;52063;45.110;9.870;2024-03-02T07:19:39;1.63;;;1.53;;
65463;SDS011;52063;45.110;9.870;2024-03-02T07:22:08;2.03;;;1.50;;
65463;SDS011;52063;45.110;9.870;2024-03-02T07:24:42;1.58;;;1.25;;
65463;SDS011;52063;45.110;9.870;2024-03-02T07:27:08;3.00;;;1.50;;
65463;SDS011;52063;45.110;9.870;2024-03-02T07:29:34;1.93;;;1.30;;
65463;SDS011;52063;45.110;9.870;2024-03-02T07:32:01;1.95;;;1.33;;
65463;SDS011;52063;45.110;9.870;2024-03-02T07:34:27;1.77;;;1.67;;
65463;SDS011;52063;45.110;9.870;2024-03-02T07:36:52;2.33;;;1.75;;
65463;SDS011;52063;45.110;9.870;2024-03-02T07:39:18;4.03;;;1.60;;
65463;SDS011;52063;45.110;9.870;2024-03-02T07:41:45;1.80;;;1.60;;
65463;SDS011;52063;45.110;9.870;2024-03-02T07:44:10;2.05;;;1.40;;
65463;SDS011;52063;45.110;9.870;2024-03-02T07:46:42;2.15;;;1.42;;
65463;SDS011;52063;45.110;9.870;2024-03-02T07:49:08;2.53;;;1.70;;
65463;SDS011;52063;45.110;9.870;2024-03-02T07:51:34;3.20;;;1.60;;
65463;SDS011;52063;45.110;9.870;2024-03-02T07:54:01;1.77;;;1.48;;
65463;SDS011;52063;45.110;9.870;2024-03-02T07:56:26;1.97;;;1.50;;
65463;SDS011;52063;45.110;9.870;2024-03-02T07:58:52;1.70;;;1.38;;
65463;SDS011;52063;45.110;9.870;2024-03-02T08:01:18;1.93;;;1.20;;
65463;SDS011;52063;45.110;9.870;2024-03-02T08:03:43;2.10;;;1.30;;
65463;SDS011;52063;45.110;9.870;2024-03-02T08:06:16;2.00;;;1.27;;
65463;SDS011;52063;45.110;9.870;2024-03-02T08:08:45;2.17;;;1.70;;
65463;SDS011;52063;45.110;9.870;2024-03-02T08:11:11;3.60;;;1.20;;
65463;SDS011;52063;45.110;9.870;2024-03-02T08:13:37;1.50;;;1.20;;
65463;SDS011;52063;45.110;9.870;2024-03-02T08:16:03;2.13;;;1.52;;
65463;SDS011;52063;45.110;9.870;2024-03-02T08:18:32;1.67;;;1.25;;
65463;SDS011;52063;45.110;9.870;2024-03-02T08:20:57;2.43;;;1.30;;
65463;SDS011;52063;45.110;9.870;2024-03-02T08:23:23;2.03;;;1.70;;
65463;SDS011;52063;45.110;9.870;2024-03-02T08:25:48;2.15;;;1.70;;
65463;SDS011;52063;45.110;9.870;2024-03-02T08:28:14;2.97;;;1.37;;
65463;SDS011;52063;45.110;9.870;2024-03-02T08:30:39;1.73;;;1.50;;
65463;SDS011;52063;45.110;9.870;2024-03-02T08:33:05;3.03;;;1.53;;
65463;SDS011;52063;45.110;9.870;2024-03-02T08:35:31;2.00;;;1.30;;
65463;SDS011;52063;45.110;9.870;2024-03-02T08:38:01;2.63;;;1.60;;
65463;SDS011;52063;45.110;9.870;2024-03-02T08:40:29;1.50;;;1.25;;
65463;SDS011;52063;45.110;9.870;2024-03-02T08:42:55;1.93;;;1.60;;
65463;SDS011;52063;45.110;9.870;2024-03-02T08:45:20;1.70;;;1.40;;
65463;SDS011;52063;45.110;9.870;2024-03-02T08:47:46;1.53;;;1.43;;
65463;SDS011;52063;45.110;9.870;2024-03-02T08:50:12;1.77;;;1.40;;
65463;SDS011;52063;45.110;9.870;2024-03-02T08:52:38;2.77;;;1.50;;
65463;SDS011;52063;45.110;9.870;2024-03-02T08:55:04;2.60;;;1.48;;
65463;SDS011;52063;45.110;9.870;2024-03-02T08:57:30;1.50;;;1.40;;
65463;SDS011;52063;45.110;9.870;2024-03-02T08:59:56;1.65;;;1.40;;
65463;SDS011;52063;45.110;9.870;2024-03-02T09:02:21;2.13;;;1.40;;
65463;SDS011;52063;45.110;9.870;2024-03-02T09:04:47;2.80;;;1.50;;
65463;SDS011;52063;45.110;9.870;2024-03-02T09:07:12;1.40;;;1.30;;
65463;SDS011;52063;45.110;9.870;2024-03-02T09:09:38;1.50;;;1.20;;
65463;SDS011;52063;45.110;9.870;2024-03-02T09:12:04;1.88;;;1.52;;
65463;SDS011;52063;45.110;9.870;2024-03-02T09:14:31;1.80;;;1.33;;
65463;SDS011;52063;45.110;9.870;2024-03-02T09:16:56;1.57;;;1.30;;
65463;SDS011;52063;45.110;9.870;2024-03-02T09:19:22;2.07;;;1.23;;
65463;SDS011;52063;45.110;9.870;2024-03-02T09:21:47;1.48;;;1.30;;
65463;SDS011;52063;45.110;9.870;2024-03-02T09:24:13;1.53;;;1.40;;
65463;SDS011;52063;45.110;9.870;2024-03-02T09:26:38;2.08;;;1.50;;
65463;SDS011;52063;45.110;9.870;2024-03-02T09:29:04;1.93;;;1.30;;
65463;SDS011;52063;45.110;9.870;2024-03-02T09:31:29;3.30;;;1.33;;
65463;SDS011;52063;45.110;9.870;2024-03-02T09:33:55;2.15;;;1.42;;
65463;SDS011;52063;45.110;9.870;2024-03-02T09:36:21;3.77;;;1.40;;
65463;SDS011;52063;45.110;9.870;2024-03-02T09:38:47;2.47;;;1.33;;
65463;SDS011;52063;45.110;9.870;2024-03-02T09:41:16;2.05;;;1.20;;
65463;SDS011;52063;45.110;9.870;2024-03-02T09:43:41;1.50;;;1.30;;
65463;SDS011;52063;45.110;9.870;2024-03-02T09:46:10;1.60;;;1.20;;
65463;SDS011;52063;45.110;9.870;2024-03-02T09:48:36;1.40;;;1.20;;
65463;SDS011;52063;45.110;9.870;2024-03-02T09:51:02;1.50;;;1.40;;
65463;SDS011;52063;45.110;9.870;2024-03-02T09:53:32;3.05;;;1.17;;
65463;SDS011;52063;45.110;9.870;2024-03-02T09:55:59;1.60;;;1.50;;
65463;SDS011;52063;45.110;9.870;2024-03-02T09:58:25;1.60;;;1.35;;
65463;SDS011;52063;45.110;9.870;2024-03-02T10:00:50;2.03;;;1.30;;
65463;SDS011;52063;45.110;9.870;2024-03-02T10:03:16;2.00;;;1.40;;
65463;SDS011;52063;45.110;9.870;2024-03-02T10:05:43;2.05;;;1.48;;
65463;SDS011;52063;45.110;9.870;2024-03-02T10:08:09;1.30;;;1.20;;
65463;SDS011;52063;45.110;9.870;2024-03-02T10:10:38;1.80;;;1.40;;
65463;SDS011;52063;45.110;9.870;2024-03-02T10:13:09;2.13;;;1.17;;
65463;SDS011;52063;45.110;9.870;2024-03-02T10:15:36;1.92;;;1.20;;
65463;SDS011;52063;45.110;9.870;2024-03-02T10:18:11;1.23;;;1.13;;
65463;SDS011;52063;45.110;9.870;2024-03-02T10:20:37;1.65;;;1.38;;
65463;SDS011;52063;45.110;9.870;2024-03-02T10:23:09;1.83;;;1.33;;
65463;SDS011;52063;45.110;9.870;2024-03-02T10:25:35;2.85;;;1.30;;
65463;SDS011;52063;45.110;9.870;2024-03-02T10:28:01;1.27;;;1.10;;
65463;SDS011;52063;45.110;9.870;2024-03-02T10:30:27;1.42;;;1.25;;
65463;SDS011;52063;45.110;9.870;2024-03-02T10:32:55;1.40;;;1.30;;
65463;SDS011;52063;45.110;9.870;2024-03-02T10:35:24;1.60;;;1.05;;
65463;SDS011;52063;45.110;9.870;2024-03-02T10:37:51;1.52;;;1.23;;
65463;SDS011;52063;45.110;9.870;2024-03-02T10:40:17;1.67;;;1.10;;
65463;SDS011;52063;45.110;9.870;2024-03-02T10:42:43;1.83;;;1.35;;
65463;SDS011;52063;45.110;9.870;2024-03-02T10:45:10;2.33;;;1.10;;
65463;SDS011;52063;45.110;9.870;2024-03-02T10:47:37;1.05;;;0.95;;
65463;SDS011;52063;45.110;9.870;2024-03-02T10:50:04;1.60;;;1.30;;
65463;SDS011;52063;45.110;9.870;2024-03-02T10:52:34;1.95;;;1.33;;
65463;SDS011;52063;45.110;9.870;2024-03-02T10:55:00;3.30;;;1.45;;
65463;SDS011;52063;45.110;9.870;2024-03-02T10:57:26;1.60;;;1.40;;
65463;SDS011;52063;45.110;9.870;2024-03-02T10:59:52;1.40;;;1.30;;
65463;SDS011;52063;45.110;9.870;2024-03-02T11:02:27;1.10;;;1.00;;
65463;SDS011;52063;45.110;9.870;2024-03-02T11:04:54;1.50;;;1.10;;
65463;SDS011;52063;45.110;9.870;2024-03-02T11:07:20;1.30;;;1.20;;
65463;SDS011;52063;45.110;9.870;2024-03-02T11:09:54;1.35;;;1.17;;
65463;SDS011;52063;45.110;9.870;2024-03-02T11:12:28;1.52;;;1.20;;
65463;SDS011;52063;45.110;9.870;2024-03-02T11:14:55;2.45;;;1.17;;
65463;SDS011;52063;45.110;9.870;2024-03-02T11:17:21;1.67;;;1.37;;
65463;SDS011;52063;45.110;9.870;2024-03-02T11:19:47;1.30;;;0.98;;
65463;SDS011;52063;45.110;9.870;2024-03-02T11:22:13;1.48;;;1.20;;
65463;SDS011;52063;45.110;9.870;2024-03-02T11:24:47;1.45;;;1.13;;
65463;SDS011;52063;45.110;9.870;2024-03-02T11:27:13;1.20;;;1.00;;
65463;SDS011;52063;45.110;9.870;2024-03-02T11:34:40;1.35;;;1.13;;
65463;SDS011;52063;45.110;9.870;2024-03-02T11:37:10;1.58;;;1.20;;
65463;SDS011;52063;45.110;9.870;2024-03-02T11:39:37;1.50;;;1.20;;
65463;SDS011;52063;45.110;9.870;2024-03-02T11:42:05;1.92;;;1.17;;
65463;SDS011;52063;45.110;9.870;2024-03-02T11:44:44;1.45;;;1.02;;
65463;SDS011;52063;45.110;9.870;2024-03-02T11:47:11;1.25;;;1.10;;
65463;SDS011;52063;45.110;9.870;2024-03-02T11:52:07;1.30;;;0.90;;
65463;SDS011;52063;45.110;9.870;2024-03-02T11:54:34;1.60;;;1.27;;
65463;SDS011;52063;45.110;9.870;2024-03-02T11:57:02;1.23;;;1.13;;
65463;SDS011;52063;45.110;9.870;2024-03-02T11:59:30;1.40;;;1.23;;
65463;SDS011;52063;45.110;9.870;2024-03-02T12:01:57;1.20;;;1.10;;
65463;SDS011;52063;45.110;9.870;2024-03-02T12:04:23;1.27;;;1.17;;
65463;SDS011;52063;45.110;9.870;2024-03-02T12:06:55;1.48;;;1.00;;
65463;SDS011;52063;45.110;9.870;2024-03-02T12:09:27;1.50;;;1.30;;
65463;SDS011;52063;45.110;9.870;2024-03-02T12:12:03;10.40;;;3.70;;
65463;SDS011;52063;45.110;9.870;2024-03-02T12:14:32;8.93;;;4.03;;
65463;SDS011;52063;45.110;9.870;2024-03-02T12:16:59;10.20;;;4.10;;
65463;SDS011;52063;45.110;9.870;2024-03-02T12:19:26;12.47;;;4.23;;
65463;SDS011;52063;45.110;9.870;2024-03-02T12:21:52;9.63;;;4.18;;
65463;SDS011;52063;45.110;9.870;2024-03-02T12:24:18;10.07;;;4.22;;
65463;SDS011;52063;45.110;9.870;2024-03-02T12:26:44;13.98;;;5.07;;
65463;SDS011;52063;45.110;9.870;2024-03-02T12:29:10;9.93;;;4.67;;
65463;SDS011;52063;45.110;9.870;2024-03-02T12:31:35;14.23;;;5.03;;
65463;SDS011;52063;45.110;9.870;2024-03-02T12:34:01;12.03;;;4.87;;
65463;SDS011;52063;45.110;9.870;2024-03-02T12:36:28;15.00;;;5.18;;
65463;SDS011;52063;45.110;9.870;2024-03-02T12:38:54;11.40;;;5.10;;
65463;SDS011;52063;45.110;9.870;2024-03-02T12:41:20;13.30;;;5.10;;
65463;SDS011;52063;45.110;9.870;2024-03-02T12:43:46;12.13;;;4.97;;
65463;SDS011;52063;45.110;9.870;2024-03-02T12:46:11;11.00;;;4.50;;
65463;SDS011;52063;45.110;9.870;2024-03-02T12:48:37;11.93;;;4.68;;
65463;SDS011;52063;45.110;9.870;2024-03-02T12:51:05;13.93;;;4.73;;
65463;SDS011;52063;45.110;9.870;2024-03-02T12:53:31;14.93;;;5.30;;
65463;SDS011;52063;45.110;9.870;2024-03-02T12:55:57;11.15;;;4.93;;
65463;SDS011;52063;45.110;9.870;2024-03-02T12:58:23;10.83;;;5.10;;
65463;SDS011;52063;45.110;9.870;2024-03-02T13:00:48;12.73;;;4.85;;
65463;SDS011;52063;45.110;9.870;2024-03-02T13:03:14;10.30;;;4.37;;
65463;SDS011;52063;45.110;9.870;2024-03-02T13:05:47;12.93;;;4.85;;
65463;SDS011;52063;45.110;9.870;2024-03-02T13:08:14;11.55;;;4.38;;
65463;SDS011;52063;45.110;9.870;2024-03-02T13:10:39;10.32;;;4.60;;
65463;SDS011;52063;45.110;9.870;2024-03-02T13:13:06;10.87;;;4.40;;
65463;SDS011;52063;45.110;9.870;2024-03-02T13:15:32;13.13;;;4.78;;
65463;SDS011;52063;45.110;9.870;2024-03-02T13:17:58;10.75;;;4.55;;
65463;SDS011;52063;45.110;9.870;2024-03-02T13:20:29;12.00;;;4.90;;
65463;SDS011;52063;45.110;9.870;2024-03-02T13:22:57;11.25;;;4.88;;
65463;SDS011;52063;45.110;9.870;2024-03-02T13:25:22;10.93;;;4.72;;
65463;SDS011;52063;45.110;9.870;2024-03-02T13:27:48;11.07;;;4.70;;
65463;SDS011;52063;45.110;9.870;2024-03-02T13:30:13;10.32;;;4.82;;
65463;SDS011;52063;45.110;9.870;2024-03-02T13:32:40;10.97;;;4.50;;
65463;SDS011;52063;45.110;9.870;2024-03-02T13:35:06;9.25;;;4.75;;
65463;SDS011;52063;45.110;9.870;2024-03-02T13:37:31;15.90;;;4.83;;
65463;SDS011;52063;45.110;9.870;2024-03-02T13:39:57;10.50;;;4.37;;
65463;SDS011;52063;45.110;9.870;2024-03-02T13:42:22;11.00;;;4.55;;
65463;SDS011;52063;45.110;9.870;2024-03-02T13:44:48;10.80;;;4.83;;
65463;SDS011;52063;45.110;9.870;2024-03-02T13:47:16;9.98;;;4.50;;
65463;SDS011;52063;45.110;9.870;2024-03-02T13:49:41;10.37;;;4.30;;
65463;SDS011;52063;45.110;9.870;2024-03-02T13:52:11;9.82;;;4.57;;
65463;SDS011;52063;45.110;9.870;2024-03-02T13:54:41;9.55;;;4.32;;
65463;SDS011;52063;45.110;9.870;2024-03-02T13:57:10;9.82;;;4.55;;
65463;SDS011;52063;45.110;9.870;2024-03-02T13:59:36;10.80;;;4.55;;
65463;SDS011;52063;45.110;9.870;2024-03-02T14:02:02;11.60;;;4.37;;
65463;SDS011;52063;45.110;9.870;2024-03-02T14:04:32;10.88;;;4.45;;
65463;SDS011;52063;45.110;9.870;2024-03-02T14:06:58;11.40;;;4.45;;
65463;SDS011;52063;45.110;9.870;2024-03-02T14:09:24;10.57;;;4.88;;
65463;SDS011;52063;45.110;9.870;2024-03-02T14:11:52;8.80;;;4.07;;
65463;SDS011;52063;45.110;9.870;2024-03-02T14:14:18;10.30;;;4.40;;
65463;SDS011;52063;45.110;9.870;2024-03-02T14:16:44;10.95;;;4.85;;
65463;SDS011;52063;45.110;9.870;2024-03-02T14:19:12;9.45;;;4.43;;
65463;SDS011;52063;45.110;9.870;2024-03-02T14:21:38;7.32;;;3.92;;
65463;SDS011;52063;45.110;9.870;2024-03-02T14:24:04;9.50;;;4.30;;
65463;SDS011;52063;45.110;9.870;2024-03-02T14:26:32;8.52;;;4.65;;
65463;SDS011;52063;45.110;9.870;2024-03-02T14:28:58;9.30;;;4.32;;
65463;SDS011;52063;45.110;9.870;2024-03-02T14:31:24;10.68;;;4.32;;
65463;SDS011;52063;45.110;9.870;2024-03-02T14:33:50;9.33;;;4.40;;
65463;SDS011;52063;45.110;9.870;2024-03-02T14:36:16;13.15;;;5.00;;
65463;SDS011;52063;45.110;9.870;2024-03-02T14:38:41;9.73;;;4.27;;
65463;SDS011;52063;45.110;9.870;2024-03-02T14:41:07;7.18;;;4.05;;
65463;SDS011;52063;45.110;9.870;2024-03-02T14:43:32;8.27;;;4.70;;
65463;SDS011;52063;45.110;9.870;2024-03-02T14:45:58;7.13;;;4.43;;
65463;SDS011;52063;45.110;9.870;2024-03-02T14:48:24;6.38;;;4.57;;
65463;SDS011;52063;45.110;9.870;2024-03-02T14:50:50;7.30;;;4.60;;
65463;SDS011;52063;45.110;9.870;2024-03-02T14:53:16;9.18;;;4.05;;